createdAt,value
2022-09-23T00:00:20.793Z,4.83
2022-09-23T00:01:21.167Z,4.88
2022-09-23T00:02:21.217Z,4.78
2022-09-23T00:03:20.702Z,4.76
2022-09-23T00:04:20.430Z,4.88
2022-09-23T00:05:20.958Z,4.78
2022-09-23T00:06:20.404Z,4.84
2022-09-23T00:07:20.894Z,4.87
2022-09-23T00:08:20.367Z,4.85
2022-09-23T00:09:20.602Z,4.83
2022-09-23T00:10:20.590Z,4.79
2022-09-23T00:11:20.567Z,4.88
2022-09-23T00:12:20.551Z,4.85
2022-09-23T00:13:20.289Z,4.85
2022-09-23T00:14:20.524Z,4.91
2022-09-23T00:15:20.252Z,4.91
2022-09-23T00:16:20.664Z,4.94
2022-09-23T00:17:20.473Z,4.91
2022-09-23T00:18:20.814Z,4.98
2022-09-23T00:19:20.698Z,4.92
2022-09-23T00:20:20.681Z,4.9
2022-09-23T00:21:20.692Z,5
2022-09-23T00:22:20.392Z,4.92
2022-09-23T00:23:20.384Z,4.97
2022-09-23T00:24:20.361Z,4.94
2022-09-23T00:25:20.608Z,4.94
2022-09-23T00:26:20.147Z,4.95
2022-09-23T00:27:20.565Z,5.02
2022-09-23T00:28:20.547Z,5
2022-09-23T00:29:20.295Z,5.02
2022-09-23T00:30:20.524Z,5
2022-09-23T00:31:20.773Z,5
2022-09-23T00:32:19.984Z,4.95
2022-09-23T00:33:20.218Z,5
2022-09-23T00:34:20.510Z,5.03
2022-09-23T00:35:20.441Z,5
2022-09-23T00:36:20.331Z,4.98
2022-09-23T00:37:20.181Z,4.92
2022-09-23T00:38:20.390Z,4.98
2022-09-23T00:39:20.117Z,4.98
2022-09-23T00:40:20.105Z,4.98
2022-09-23T00:41:20.518Z,4.97
2022-09-23T00:42:19.816Z,4.92
2022-09-23T00:43:20.311Z,5
2022-09-23T00:44:20.049Z,4.92
2022-09-23T00:45:20.019Z,5.05
2022-09-23T00:46:20.646Z,4.98
2022-09-23T00:47:19.999Z,4.92
2022-09-23T00:48:20.226Z,4.94
2022-09-23T00:49:19.957Z,5.03
2022-09-23T00:50:20.271Z,5.05
2022-09-23T00:51:19.924Z,5.06
2022-09-23T00:52:19.651Z,5.12
2022-09-23T00:53:21.055Z,5.06
2022-09-23T00:54:20.754Z,5.03
2022-09-23T00:55:20.737Z,5.12
2022-09-23T00:56:20.726Z,5
2022-09-23T00:57:20.706Z,5.05
2022-09-23T00:58:20.942Z,5.08
2022-09-23T00:59:20.674Z,5.05
2022-09-23T01:00:20.657Z,5.06
2022-09-23T01:01:20.585Z,5.1
2022-09-23T01:02:20.776Z,5.05
2022-09-23T01:03:20.364Z,5.08
2022-09-23T01:04:20.587Z,5.03
2022-09-23T01:05:20.584Z,5.12
2022-09-23T01:06:20.866Z,5.06
2022-09-23T01:07:20.288Z,5.08
2022-09-23T01:08:20.271Z,5.08
2022-09-23T01:09:20.560Z,5.12
2022-09-23T01:10:20.849Z,5.05
2022-09-23T01:11:20.226Z,5.08
2022-09-23T01:12:20.721Z,5.06
2022-09-23T01:13:20.450Z,5.09
2022-09-23T01:14:20.440Z,4.95
2022-09-23T01:15:20.410Z,4.98
2022-09-23T01:16:20.585Z,5.06
2022-09-23T01:17:20.384Z,5.02
2022-09-23T01:18:20.371Z,5.08
2022-09-23T01:19:20.606Z,5.08
2022-09-23T01:20:20.334Z,5.05
2022-09-23T01:21:20.317Z,5.09
2022-09-23T01:22:20.358Z,5.08
2022-09-23T01:23:20.284Z,5.08
2022-09-23T01:24:20.522Z,5.02
2022-09-23T01:25:20.280Z,4.92
2022-09-23T01:26:20.239Z,5.03
2022-09-23T01:27:19.965Z,5.03
2022-09-23T01:28:20.460Z,4.92
2022-09-23T01:29:20.446Z,4.91
2022-09-23T01:30:20.179Z,5.02
2022-09-23T01:31:20.354Z,5.06
2022-09-23T01:32:20.142Z,4.92
2022-09-23T01:33:20.376Z,4.98
2022-09-23T01:34:20.127Z,4.94
2022-09-23T01:35:20.103Z,5.03
2022-09-23T01:36:20.081Z,5.02
2022-09-23T01:37:20.059Z,4.91
2022-09-23T01:38:20.121Z,4.9
2022-09-23T01:39:20.024Z,4.91
2022-09-23T01:40:20.235Z,4.9
2022-09-23T01:41:20.300Z,4.85
2022-09-23T01:42:19.979Z,4.91
2022-09-23T01:43:20.218Z,4.92
2022-09-23T01:44:19.706Z,4.97
2022-09-23T01:45:19.937Z,4.91
2022-09-23T01:46:19.920Z,4.85
2022-09-23T01:47:19.907Z,4.88
2022-09-23T01:48:20.366Z,4.83
2022-09-23T01:49:20.907Z,4.9
2022-09-23T01:50:19.854Z,4.76
2022-09-23T01:51:20.102Z,4.75
2022-09-23T01:52:19.566Z,4.72
2022-09-23T01:53:19.571Z,4.75
2022-09-23T01:54:19.839Z,4.76
2022-09-23T01:55:20.034Z,4.83
2022-09-23T01:56:19.505Z,4.79
2022-09-23T01:57:20.015Z,4.83
2022-09-23T01:58:19.988Z,4.9
2022-09-23T01:59:19.966Z,4.83
2022-09-23T02:00:19.720Z,4.87
2022-09-23T02:01:19.962Z,4.85
2022-09-23T02:02:20.325Z,4.85
2022-09-23T02:03:19.644Z,4.9
2022-09-23T02:04:19.879Z,4.84
2022-09-23T02:05:19.382Z,4.9
2022-09-23T02:06:19.849Z,4.84
2022-09-23T02:07:19.590Z,4.83
2022-09-23T02:08:19.556Z,4.85
2022-09-23T02:09:19.800Z,4.78
2022-09-23T02:10:19.579Z,4.76
2022-09-23T02:11:19.514Z,4.87
2022-09-23T02:12:19.497Z,4.84
2022-09-23T02:13:19.512Z,4.88
2022-09-23T02:14:19.716Z,4.74
2022-09-23T02:15:19.450Z,4.84
2022-09-23T02:16:19.321Z,4.87
2022-09-23T02:17:19.420Z,4.84
2022-09-23T02:18:19.658Z,4.78
2022-09-23T02:19:19.378Z,4.83
2022-09-23T02:20:19.365Z,4.88
2022-09-23T02:21:19.354Z,4.83
2022-09-23T02:22:19.329Z,4.74
2022-09-23T02:23:19.574Z,4.84
2022-09-23T02:24:19.554Z,4.72
2022-09-23T02:25:19.544Z,4.79
2022-09-23T02:26:19.318Z,4.68
2022-09-23T02:27:19.514Z,4.72
2022-09-23T02:28:19.492Z,4.68
2022-09-23T02:29:19.508Z,4.72
2022-09-23T02:30:19.211Z,4.84
2022-09-23T02:31:19.190Z,4.69
2022-09-23T02:32:19.307Z,4.72
2022-09-23T02:33:18.904Z,4.71
2022-09-23T02:34:19.395Z,4.72
2022-09-23T02:35:19.126Z,4.75
2022-09-23T02:36:19.360Z,4.72
2022-09-23T02:37:19.102Z,4.85
2022-09-23T02:38:19.331Z,4.75
2022-09-23T02:39:18.802Z,4.76
2022-09-23T02:40:19.648Z,4.72
2022-09-23T02:41:19.036Z,4.69
2022-09-23T02:42:19.061Z,4.69
2022-09-23T02:43:19.258Z,4.72
2022-09-23T02:44:18.988Z,4.72
2022-09-23T02:45:19.249Z,4.69
2022-09-23T02:46:18.932Z,4.78
2022-09-23T02:47:19.186Z,4.78
2022-09-23T02:48:18.657Z,4.69
2022-09-23T02:49:18.896Z,4.68
2022-09-23T02:50:18.884Z,4.75
2022-09-23T02:51:18.862Z,4.83
2022-09-23T02:52:18.854Z,4.79
2022-09-23T02:53:18.830Z,4.72
2022-09-23T02:54:19.074Z,4.85
2022-09-23T02:55:18.547Z,4.88
2022-09-23T02:56:18.796Z,4.76
2022-09-23T02:57:18.764Z,4.84
2022-09-23T02:58:18.803Z,4.72
2022-09-23T02:59:19.002Z,4.71
2022-09-23T03:00:18.729Z,4.75
2022-09-23T03:01:19.010Z,4.74
2022-09-23T03:02:19.371Z,4.76
2022-09-23T03:03:18.675Z,4.75
2022-09-23T03:04:18.935Z,4.88
2022-09-23T03:05:18.642Z,4.79
2022-09-23T03:06:18.632Z,4.83
2022-09-23T03:07:18.872Z,4.74
2022-09-23T03:08:18.603Z,4.76
2022-09-23T03:09:18.582Z,4.79
2022-09-23T03:10:18.557Z,4.75
2022-09-23T03:11:18.540Z,4.75
2022-09-23T03:12:18.794Z,4.79
2022-09-23T03:13:18.509Z,4.72
2022-09-23T03:14:18.544Z,4.78
2022-09-23T03:15:18.820Z,4.75
2022-09-23T03:16:18.900Z,4.79
2022-09-23T03:17:18.466Z,4.9
2022-09-23T03:18:18.682Z,4.87
2022-09-23T03:19:18.409Z,4.87
2022-09-23T03:20:18.398Z,4.88
2022-09-23T03:21:18.381Z,4.79
2022-09-23T03:22:18.110Z,4.83
2022-09-23T03:23:18.350Z,4.72
2022-09-23T03:24:18.352Z,4.72
2022-09-23T03:25:18.065Z,4.76
2022-09-23T03:26:18.297Z,4.9
2022-09-23T03:27:18.047Z,4.91
2022-09-23T03:28:18.522Z,4.9
2022-09-23T03:29:18.254Z,4.9
2022-09-23T03:30:18.538Z,4.79
2022-09-23T03:31:18.732Z,4.85
2022-09-23T03:32:18.453Z,4.84
2022-09-23T03:50:00.996Z,4.91
2022-09-23T03:51:00.904Z,4.85
2022-09-23T03:52:00.448Z,4.76
2022-09-23T03:53:00.613Z,4.85
2022-09-23T03:54:00.850Z,4.78
2022-09-23T03:55:00.573Z,4.84
2022-09-23T03:56:00.557Z,4.78
2022-09-23T03:57:00.801Z,4.87
2022-09-23T03:58:00.537Z,4.75
2022-09-23T03:59:00.503Z,4.76
2022-09-23T04:00:00.480Z,4.74
2022-09-23T04:01:00.731Z,4.68
2022-09-23T04:02:00.704Z,4.64
2022-09-23T04:03:00.690Z,4.66
2022-09-23T04:04:00.417Z,4.79
2022-09-23T04:05:00.402Z,4.68
2022-09-23T04:06:00.705Z,4.72
2022-09-23T04:07:00.121Z,4.72
2022-09-23T04:08:00.353Z,4.69
2022-09-23T04:09:00.075Z,4.75
2022-09-23T04:10:00.568Z,4.79
2022-09-23T04:11:00.041Z,4.72
2022-09-23T04:12:00.533Z,4.79
2022-09-23T04:13:00.544Z,4.74
2022-09-23T04:14:00.504Z,4.69
2022-09-23T04:15:00.236Z,4.69
2022-09-23T04:16:00.339Z,4.64
2022-09-23T04:17:00.450Z,4.66
2022-09-23T04:18:00.436Z,4.71
2022-09-23T04:19:00.170Z,4.69
2022-09-23T04:20:00.401Z,4.65
2022-09-23T04:21:00.141Z,4.65
2022-09-23T04:22:00.451Z,4.68
2022-09-23T04:23:00.096Z,4.66
2022-09-23T04:23:59.825Z,4.69
2022-09-23T04:25:00.323Z,4.71
2022-09-23T04:26:00.298Z,4.71
2022-09-23T04:27:00.039Z,4.69
2022-09-23T04:28:00.028Z,4.6
2022-09-23T04:29:00.031Z,4.66
2022-09-23T04:30:00.002Z,4.68
2022-09-23T04:30:59.965Z,4.68
2022-09-23T04:32:00.211Z,4.68
2022-09-23T04:33:00.195Z,4.65
2022-09-23T04:33:59.926Z,4.64
2022-09-23T04:34:59.900Z,4.68
2022-09-23T04:35:59.878Z,4.75
2022-09-23T04:36:59.866Z,4.75
2022-09-23T04:38:00.185Z,4.9
2022-09-23T04:38:59.890Z,4.84
2022-09-23T04:40:00.079Z,4.85
2022-09-23T04:40:59.798Z,4.88
2022-09-23T04:41:59.786Z,4.76
2022-09-23T04:42:59.772Z,4.83
2022-09-23T04:44:00.009Z,4.83
2022-09-23T04:44:59.992Z,4.87
2022-09-23T04:45:59.977Z,4.87
2022-09-23T04:46:59.865Z,4.87
2022-09-23T04:47:59.692Z,4.83
2022-09-23T04:48:59.709Z,4.95
2022-09-23T04:50:04.512Z,4.87
2022-09-23T04:50:59.894Z,4.92
2022-09-23T04:51:59.617Z,4.97
2022-09-23T04:52:59.875Z,4.94
2022-09-23T04:53:59.931Z,4.92
2022-09-23T04:54:59.571Z,4.94
2022-09-23T04:55:59.555Z,4.92
2022-09-23T04:56:59.550Z,4.95
2022-09-23T04:57:59.528Z,4.95
2022-09-23T04:58:59.897Z,4.91
2022-09-23T04:59:59.492Z,4.98
2022-09-23T05:01:05.280Z,4.97
2022-09-23T05:01:59.371Z,4.98
2022-09-23T05:02:59.458Z,5.03
2022-09-23T05:03:59.434Z,5.02
2022-09-23T05:04:59.413Z,4.98
2022-09-23T05:05:59.395Z,5.02
2022-09-23T05:07:05.447Z,4.97
2022-09-23T05:07:59.257Z,4.97
2022-09-23T05:08:59.601Z,5.05
2022-09-23T05:09:59.856Z,5.05
2022-09-23T05:10:59.467Z,5.1
2022-09-23T05:11:59.447Z,5.08
2022-09-23T05:13:02.116Z,4.98
2022-09-23T05:13:59.191Z,5.08
2022-09-23T05:14:59.397Z,5.08
2022-09-23T05:15:59.558Z,5.12
2022-09-23T05:16:59.627Z,5.1
2022-09-23T05:17:59.363Z,5.1
2022-09-23T05:18:59.693Z,5.15
2022-09-23T05:19:59.329Z,5.15
2022-09-23T05:20:59.302Z,5.15
2022-09-23T05:21:59.542Z,5.1
2022-09-23T05:22:59.270Z,5.08
2022-09-23T05:23:59.141Z,5.12
2022-09-23T05:24:59.497Z,5.12
2022-09-23T05:25:59.554Z,5.16
2022-09-23T05:26:59.468Z,5.21
2022-09-23T05:27:59.192Z,5.23
2022-09-23T05:28:59.262Z,5.15
2022-09-23T05:29:59.156Z,5.18
2022-09-23T05:30:59.512Z,5.16
2022-09-23T05:31:59.078Z,5.18
2022-09-23T05:32:59.365Z,5.23
2022-09-23T05:33:59.088Z,5.23
2022-09-23T05:34:59.343Z,5.3
2022-09-23T05:35:59.315Z,5.34
2022-09-23T05:36:59.304Z,5.39
2022-09-23T05:37:59.029Z,5.37
2022-09-23T05:38:59.369Z,5.46
2022-09-23T05:39:59.041Z,5.44
2022-09-23T05:40:58.733Z,5.44
2022-09-23T05:41:59.402Z,5.44
2022-09-23T05:42:58.949Z,5.42
2022-09-23T05:43:59.189Z,5.42
2022-09-23T05:44:59.171Z,5.42
2022-09-23T05:45:58.900Z,5.45
2022-09-23T05:46:59.161Z,5.44
2022-09-23T05:47:58.881Z,5.44
2022-09-23T05:49:09.432Z,5.48
2022-09-23T05:50:04.853Z,5.49
2022-09-23T05:50:58.823Z,5.51
2022-09-23T05:51:58.806Z,5.57
2022-09-23T05:52:58.795Z,5.59
2022-09-23T05:53:59.033Z,5.66
2022-09-23T05:54:58.508Z,5.55
2022-09-23T05:55:58.979Z,5.57
2022-09-23T05:57:04.207Z,5.66
2022-09-23T05:57:59.013Z,5.64
2022-09-23T05:58:58.699Z,5.72
2022-09-23T05:59:58.683Z,5.75
2022-09-23T06:00:58.925Z,5.75
2022-09-23T06:02:01.368Z,5.75
2022-09-23T06:02:58.604Z,5.82
2022-09-23T06:03:58.630Z,5.96
2022-09-23T06:04:58.618Z,5.87
2022-09-23T06:05:58.587Z,5.88
2022-09-23T06:07:02.890Z,5.87
2022-09-23T06:07:58.811Z,5.96
2022-09-23T06:08:58.553Z,5.96
2022-09-23T06:09:58.576Z,6.03
2022-09-23T06:10:58.999Z,6.05
2022-09-23T06:11:58.520Z,6.07
2022-09-23T06:12:58.525Z,6.17
2022-09-23T06:13:58.871Z,6.13
2022-09-23T06:14:58.707Z,6.24
2022-09-23T06:15:58.410Z,6.24
2022-09-23T06:16:58.675Z,6.25
2022-09-23T06:17:58.657Z,6.26
2022-09-23T06:19:01.803Z,6.28
2022-09-23T06:19:58.115Z,6.39
2022-09-23T06:20:58.107Z,6.47
2022-09-23T06:21:58.343Z,6.49
2022-09-23T06:23:00.121Z,6.52
2022-09-23T06:24:01.326Z,6.52
2022-09-23T06:24:58.552Z,6.6
2022-09-23T06:25:58.544Z,6.49
2022-09-23T06:26:58.535Z,6.47
2022-09-23T06:27:58.250Z,6.47
2022-09-23T06:28:58.281Z,6.52
2022-09-23T06:29:58.527Z,6.55
2022-09-23T06:30:58.196Z,6.55
2022-09-23T06:31:58.178Z,6.58
2022-09-23T06:32:58.425Z,6.65
2022-09-23T06:34:15.405Z,6.67
2022-09-23T06:34:58.138Z,6.85
2022-09-23T06:36:04.323Z,6.88
2022-09-23T06:36:58.908Z,6.83
2022-09-23T06:37:58.092Z,6.9
2022-09-23T06:38:58.077Z,6.94
2022-09-23T06:39:58.070Z,7.05
2022-09-23T06:40:57.873Z,7.05
2022-09-23T06:41:57.786Z,7.18
2022-09-23T06:42:58.021Z,7.13
2022-09-23T06:43:57.755Z,7.22
2022-09-23T06:44:58.017Z,7.3
2022-09-23T06:45:58.279Z,7.36
2022-09-23T06:46:58.225Z,7.34
2022-09-23T06:47:57.983Z,7.39
2022-09-23T06:48:57.937Z,7.37
2022-09-23T06:49:57.926Z,7.44
2022-09-23T06:50:57.904Z,7.51
2022-09-23T06:51:58.144Z,7.52
2022-09-23T06:52:58.127Z,7.47
2022-09-23T06:53:57.859Z,7.41
2022-09-23T06:54:57.838Z,7.48
2022-09-23T06:55:57.828Z,7.52
2022-09-23T06:56:57.810Z,7.56
2022-09-23T06:57:57.799Z,7.59
2022-09-23T06:58:58.036Z,7.75
2022-09-23T06:59:58.025Z,7.88
2022-09-23T07:00:58.042Z,7.78
2022-09-23T07:01:58.429Z,7.93
2022-09-23T07:02:57.956Z,8.09
2022-09-23T07:03:57.728Z,8.06
2022-09-23T07:04:57.715Z,8.16
2022-09-23T07:05:57.681Z,8.24
2022-09-23T07:06:57.935Z,8.21
2022-09-23T07:07:57.648Z,8.21
2022-09-23T07:08:57.634Z,8.21
2022-09-23T07:09:57.884Z,8.39
2022-09-23T07:10:57.622Z,8.4
2022-09-23T07:11:57.853Z,8.43
2022-09-23T07:12:57.839Z,8.4
2022-09-23T07:13:57.826Z,8.52
2022-09-23T07:14:57.560Z,8.54
2022-09-23T07:15:57.537Z,8.58
2022-09-23T07:16:57.859Z,8.6
2022-09-23T07:17:57.814Z,8.67
2022-09-23T07:18:57.754Z,8.62
2022-09-23T07:19:57.488Z,8.64
2022-09-23T07:20:57.473Z,8.65
2022-09-23T07:21:57.460Z,8.68
2022-09-23T07:22:57.443Z,8.76
2022-09-23T07:23:57.434Z,8.74
2022-09-23T07:24:57.676Z,8.82
2022-09-23T07:25:57.407Z,8.8
2022-09-23T07:26:57.389Z,8.82
2022-09-23T07:27:57.627Z,8.95
2022-09-23T07:28:57.371Z,8.87
2022-09-23T07:29:57.350Z,8.94
2022-09-23T07:31:05.469Z,8.97
2022-09-23T07:32:14.324Z,9.05
2022-09-23T07:32:57.817Z,9
2022-09-23T07:33:57.601Z,9.03
2022-09-23T07:34:57.283Z,9.01
2022-09-23T07:35:57.271Z,9.05
2022-09-23T07:36:57.267Z,9.09
2022-09-23T07:37:57.244Z,9.16
2022-09-23T07:38:57.483Z,9.24
2022-09-23T07:39:57.470Z,9.17
2022-09-23T07:40:57.570Z,9.32
2022-09-23T07:41:57.191Z,9.34
2022-09-23T07:42:57.182Z,9.37
2022-09-23T07:43:57.414Z,9.44
2022-09-23T07:44:57.150Z,9.5
2022-09-23T07:45:57.320Z,9.5
2022-09-23T07:46:57.456Z,9.55
2022-09-23T07:47:57.139Z,9.7
2022-09-23T07:48:57.102Z,9.72
2022-09-23T07:49:57.397Z,9.74
2022-09-23T07:50:57.074Z,9.81
2022-09-23T07:51:56.898Z,9.81
2022-09-23T07:52:57.048Z,9.78
2022-09-23T07:53:57.298Z,9.92
2022-09-23T07:54:57.023Z,9.98
2022-09-23T07:55:56.751Z,9.99
2022-09-23T07:56:57.002Z,10
2022-09-23T07:57:57.237Z,10.1
2022-09-23T07:58:56.971Z,10.25
2022-09-23T07:59:57.213Z,10.41
2022-09-23T08:00:56.689Z,10.47
2022-09-23T08:01:57.716Z,10.58
2022-09-23T08:02:58.206Z,10.7
2022-09-23T08:03:57.046Z,10.83
2022-09-23T08:04:56.744Z,10.91
2022-09-23T08:05:57.391Z,10.87
2022-09-23T08:06:56.976Z,11
2022-09-23T08:07:56.966Z,11.05
2022-09-23T08:08:58.405Z,11.09
2022-09-23T08:09:56.704Z,11.09
2022-09-23T08:10:56.927Z,11.15
2022-09-23T08:11:56.917Z,11.23
2022-09-23T08:12:56.649Z,11.3
2022-09-23T08:13:56.891Z,11.39
2022-09-23T08:14:57.137Z,11.42
2022-09-23T08:15:59.993Z,11.46
2022-09-23T08:16:56.733Z,11.56
2022-09-23T08:17:56.840Z,11.59
2022-09-23T08:18:57.326Z,11.49
2022-09-23T08:19:57.101Z,11.56
2022-09-23T08:20:57.057Z,11.56
2022-09-23T08:21:57.306Z,11.66
2022-09-23T08:22:57.040Z,11.61
2022-09-23T08:23:57.166Z,11.68
2022-09-23T08:25:00.152Z,11.78
2022-09-23T08:26:01.045Z,11.79
2022-09-23T08:26:57.372Z,11.89
2022-09-23T08:27:57.369Z,11.98
2022-09-23T08:28:57.603Z,12
2022-09-23T08:29:57.598Z,12.04
2022-09-23T08:30:57.432Z,12.04
2022-09-23T08:31:57.319Z,12.13
2022-09-23T08:32:57.560Z,12.19
2022-09-23T08:33:57.302Z,12.19
2022-09-23T08:34:57.290Z,12.16
2022-09-23T08:35:57.042Z,12.28
2022-09-23T08:36:57.513Z,12.33
2022-09-23T08:37:57.551Z,12.33
2022-09-23T08:38:57.017Z,12.37
2022-09-23T08:39:57.236Z,12.34
2022-09-23T08:40:57.475Z,12.38
2022-09-23T08:42:03.009Z,12.36
2022-09-23T08:42:57.193Z,12.38
2022-09-23T08:43:57.186Z,12.43
2022-09-23T08:44:57.431Z,12.43
2022-09-23T08:45:58.196Z,12.55
2022-09-23T08:46:57.872Z,12.66
2022-09-23T08:47:57.788Z,12.61
2022-09-23T08:48:57.772Z,12.63
2022-09-23T08:49:57.754Z,12.73
2022-09-23T08:50:58.005Z,12.73
2022-09-23T08:51:58.015Z,12.71
2022-09-23T08:52:57.978Z,12.78
2022-09-23T08:53:58.031Z,12.78
2022-09-23T08:55:00.106Z,12.86
2022-09-23T08:55:57.948Z,12.86
2022-09-23T08:56:57.686Z,12.89
2022-09-23T08:58:28.948Z,12.96
2022-09-23T08:58:57.658Z,13.09
2022-09-23T08:59:57.650Z,13.1
2022-09-23T09:00:57.922Z,13.21
2022-09-23T09:01:57.630Z,13.29
2022-09-23T09:02:57.828Z,13.37
2022-09-23T09:03:57.351Z,13.44
2022-09-23T09:04:57.853Z,13.47
2022-09-23T09:05:59.307Z,13.53
2022-09-23T09:07:37.240Z,13.68
2022-09-23T09:07:57.567Z,13.66
2022-09-23T09:08:57.560Z,13.78
2022-09-23T09:09:57.852Z,13.83
2022-09-23T09:10:57.797Z,13.88
2022-09-23T09:11:57.525Z,13.87
2022-09-23T09:12:57.521Z,13.84
2022-09-23T09:13:57.766Z,13.95
2022-09-23T09:14:57.249Z,14.06
2022-09-23T09:15:59.812Z,14.09
2022-09-23T09:17:04.804Z,14.19
2022-09-23T09:17:57.480Z,14.3
2022-09-23T09:18:57.463Z,14.33
2022-09-23T09:19:57.501Z,14.3
2022-09-23T09:20:57.497Z,14.46
2022-09-23T09:21:57.428Z,14.53
2022-09-23T09:22:57.856Z,14.66
2022-09-23T09:23:57.426Z,14.67
2022-09-23T09:24:57.659Z,14.71
2022-09-23T09:25:57.710Z,14.86
2022-09-23T09:26:57.382Z,14.94
2022-09-23T09:27:57.394Z,14.98
2022-09-23T09:29:23.643Z,15.01
2022-09-23T09:29:57.356Z,15.02
2022-09-23T09:30:57.547Z,15.02
2022-09-23T09:31:57.340Z,15.13
2022-09-23T09:32:57.333Z,15.25
2022-09-23T09:33:57.322Z,15.3
2022-09-23T09:34:57.313Z,15.44
2022-09-23T09:35:57.303Z,15.51
2022-09-23T09:36:57.040Z,15.52
2022-09-23T09:37:58.453Z,15.63
2022-09-23T09:38:57.399Z,15.67
2022-09-23T09:39:57.270Z,15.75
2022-09-23T09:40:57.416Z,15.81
2022-09-23T09:41:57.578Z,15.86
2022-09-23T09:42:57.257Z,15.89
2022-09-23T09:43:57.239Z,15.91
2022-09-23T09:44:57.233Z,15.92
2022-09-23T09:46:02.091Z,15.83
2022-09-23T09:46:57.698Z,15.73
2022-09-23T09:47:57.456Z,15.6
2022-09-23T09:48:57.443Z,15.51
2022-09-23T09:49:57.435Z,15.43
2022-09-23T09:50:57.199Z,15.45
2022-09-23T09:51:56.919Z,15.51
2022-09-23T09:52:57.364Z,15.6
2022-09-23T09:53:57.149Z,15.73
2022-09-23T09:54:57.141Z,15.86
2022-09-23T09:55:59.781Z,15.91
2022-09-23T09:56:57.393Z,15.91
2022-09-23T09:57:57.426Z,15.86
2022-09-23T09:58:57.311Z,15.99
2022-09-23T09:59:57.063Z,16.07
2022-09-23T10:00:57.297Z,16.14
2022-09-23T10:01:57.116Z,16.22
2022-09-23T10:02:57.292Z,16.18
2022-09-23T10:04:02.123Z,16.21
2022-09-23T10:04:57.105Z,16.3
2022-09-23T10:05:56.999Z,16.33
2022-09-23T10:06:56.990Z,16.27
2022-09-23T10:07:57.237Z,16.34
2022-09-23T10:08:56.976Z,16.45
2022-09-23T10:10:15.861Z,16.45
2022-09-23T10:10:56.967Z,16.48
2022-09-23T10:11:56.979Z,16.52
2022-09-23T10:12:57.198Z,16.63
2022-09-23T10:13:57.252Z,16.69
2022-09-23T10:14:56.945Z,16.77
2022-09-23T10:15:56.923Z,16.76
2022-09-23T10:16:57.300Z,16.81
2022-09-23T10:17:57.162Z,16.82
2022-09-23T10:18:56.902Z,16.67
2022-09-23T10:19:56.645Z,16.7
2022-09-23T10:20:56.881Z,16.62
2022-09-23T10:21:56.624Z,16.63
2022-09-23T10:22:57.120Z,16.51
2022-09-23T10:23:57.117Z,16.47
2022-09-23T10:24:56.850Z,16.57
2022-09-23T10:25:56.618Z,16.63
2022-09-23T10:26:56.838Z,16.62
2022-09-23T10:27:56.843Z,16.66
2022-09-23T10:28:56.578Z,16.72
2022-09-23T10:29:57.188Z,16.81
2022-09-23T10:30:57.180Z,16.81
2022-09-23T10:31:56.801Z,16.73
2022-09-23T10:32:57.162Z,16.87
2022-09-23T10:33:57.050Z,16.91
2022-09-23T10:34:57.082Z,16.99
2022-09-23T10:35:57.237Z,17.02
2022-09-23T10:36:56.769Z,17.07
2022-09-23T10:37:56.779Z,17.03
2022-09-23T10:38:57.012Z,17.06
2022-09-23T10:39:57.003Z,17.09
2022-09-23T10:40:57.081Z,17.07
2022-09-23T10:41:57.015Z,17.03
2022-09-23T10:42:56.731Z,17
2022-09-23T10:43:56.980Z,17.1
2022-09-23T10:44:56.971Z,17.06
2022-09-23T10:45:57.226Z,17.03
2022-09-23T10:46:56.709Z,17.02
2022-09-23T10:47:56.950Z,16.92
2022-09-23T10:48:56.690Z,16.95
2022-09-23T10:49:56.682Z,16.91
2022-09-23T10:50:58.992Z,16.85
2022-09-23T10:51:56.669Z,16.9
2022-09-23T10:52:56.919Z,16.97
2022-09-23T10:53:56.937Z,17.03
2022-09-23T10:54:56.905Z,17.12
2022-09-23T10:55:56.896Z,17
2022-09-23T10:57:02.684Z,17.09
2022-09-23T10:57:56.878Z,16.95
2022-09-23T10:58:56.626Z,17.06
2022-09-23T10:59:56.617Z,17.02
2022-09-23T11:00:56.499Z,17.09
2022-09-23T11:01:57.181Z,17.1
2022-09-23T11:02:56.618Z,17.03
2022-09-23T11:03:56.851Z,17.13
2022-09-23T11:04:56.916Z,17.1
2022-09-23T11:05:56.828Z,17.15
2022-09-23T11:06:56.572Z,17.21
2022-09-23T11:07:56.565Z,17.05
2022-09-23T11:08:56.827Z,17.17
2022-09-23T11:09:56.807Z,17.07
2022-09-23T11:10:56.805Z,17.09
2022-09-23T11:11:56.536Z,17.07
2022-09-23T11:12:56.555Z,17.03
2022-09-23T11:13:59.467Z,16.99
2022-09-23T11:14:56.265Z,16.9
2022-09-23T11:15:56.257Z,16.94
2022-09-23T11:16:56.949Z,16.88
2022-09-23T11:17:56.821Z,16.8
2022-09-23T11:18:56.514Z,16.72
2022-09-23T11:19:56.490Z,16.59
2022-09-23T11:20:56.754Z,16.52
2022-09-23T11:21:56.478Z,16.44
2022-09-23T11:22:56.467Z,16.42
2022-09-23T11:23:56.713Z,16.32
2022-09-23T11:24:56.196Z,16.32
2022-09-23T11:25:56.452Z,16.39
2022-09-23T11:26:56.697Z,16.27
2022-09-23T11:27:56.435Z,16.27
2022-09-23T11:28:56.195Z,16.29
2022-09-23T11:29:56.416Z,16.26
2022-09-23T11:30:56.445Z,16.33
2022-09-23T11:32:01.932Z,16.21
2022-09-23T11:32:56.324Z,16.33
2022-09-23T11:33:56.697Z,16.34
2022-09-23T11:34:59.676Z,16.3
2022-09-23T11:35:56.382Z,16.29
2022-09-23T11:36:56.628Z,16.26
2022-09-23T11:37:56.366Z,16.34
2022-09-23T11:38:56.998Z,16.4
2022-09-23T11:39:56.738Z,16.47
2022-09-23T11:40:57.131Z,16.49
2022-09-23T11:41:56.972Z,16.44
2022-09-23T11:42:56.715Z,16.48
2022-09-23T11:43:56.707Z,16.47
2022-09-23T11:44:56.752Z,16.39
2022-09-23T11:45:57.123Z,16.4
2022-09-23T11:46:56.682Z,16.42
2022-09-23T11:47:56.692Z,16.48
2022-09-23T11:48:56.671Z,16.42
2022-09-23T11:49:56.973Z,16.48
2022-09-23T11:50:56.910Z,16.49
2022-09-23T11:51:56.647Z,16.51
2022-09-23T11:52:56.642Z,16.58
2022-09-23T11:53:56.639Z,16.58
2022-09-23T11:54:57.054Z,16.59
2022-09-23T11:56:03.004Z,16.63
2022-09-23T11:56:56.361Z,16.62
2022-09-23T11:57:56.857Z,16.63
2022-09-23T11:59:02.198Z,16.55
2022-09-23T11:59:56.869Z,16.52
2022-09-23T12:01:03.473Z,16.52
2022-09-23T12:01:57.136Z,16.4
2022-09-23T12:03:08.967Z,16.36
2022-09-23T12:03:57.460Z,16.32
2022-09-23T12:05:03.429Z,16.27
2022-09-23T12:05:57.310Z,16.33
2022-09-23T12:06:56.544Z,16.32
2022-09-23T12:07:56.806Z,16.22
2022-09-23T12:08:56.784Z,16.29
2022-09-23T12:10:03.319Z,16.32
2022-09-23T12:10:56.519Z,16.32
2022-09-23T12:11:56.510Z,16.27
2022-09-23T12:12:56.753Z,16.29
2022-09-23T12:13:56.760Z,16.27
2022-09-23T12:14:56.584Z,16.16
2022-09-23T12:15:56.773Z,16.18
2022-09-23T12:16:56.607Z,16.16
2022-09-23T12:17:56.748Z,16.1
2022-09-23T12:18:56.455Z,16.08
2022-09-23T12:19:56.211Z,16.11
2022-09-23T12:20:56.721Z,16.1
2022-09-23T12:21:56.498Z,16.1
2022-09-23T12:22:56.693Z,16.29
2022-09-23T12:23:56.419Z,16.27
2022-09-23T12:24:56.765Z,16.16
2022-09-23T12:25:56.660Z,16.25
2022-09-23T12:26:56.406Z,16.16
2022-09-23T12:27:56.132Z,16.07
2022-09-23T12:28:56.386Z,16.06
2022-09-23T12:29:56.378Z,15.99
2022-09-23T12:30:56.341Z,15.93
2022-09-23T12:31:56.613Z,15.89
2022-09-23T12:32:56.382Z,15.86
2022-09-23T12:33:56.603Z,15.91
2022-09-23T12:34:56.119Z,15.98
2022-09-23T12:35:56.331Z,15.89
2022-09-23T12:36:56.359Z,15.86
2022-09-23T12:37:56.596Z,15.77
2022-09-23T12:38:56.312Z,15.74
2022-09-23T12:39:56.302Z,15.74
2022-09-23T12:40:56.638Z,15.78
2022-09-23T12:41:56.292Z,15.75
2022-09-23T12:42:56.282Z,15.78
2022-09-23T12:43:56.269Z,15.74
2022-09-23T12:44:56.275Z,15.7
2022-09-23T12:45:56.683Z,15.7
2022-09-23T12:46:56.258Z,15.67
2022-09-23T12:47:56.244Z,15.68
2022-09-23T12:48:56.519Z,15.71
2022-09-23T12:49:56.238Z,15.8
2022-09-23T12:50:55.967Z,15.86
2022-09-23T12:51:56.468Z,15.89
2022-09-23T12:52:56.226Z,15.84
2022-09-23T12:53:56.220Z,15.91
2022-09-23T12:54:56.208Z,15.89
2022-09-23T12:55:56.198Z,15.83
2022-09-23T12:56:55.924Z,15.98
2022-09-23T12:57:56.419Z,15.92
2022-09-23T12:58:56.155Z,15.96
2022-09-23T12:59:56.403Z,15.93
2022-09-23T13:00:56.706Z,16
2022-09-23T13:01:56.635Z,15.93
2022-09-23T13:02:56.127Z,16.04
2022-09-23T13:03:56.379Z,16
2022-09-23T13:04:56.180Z,15.84
2022-09-23T13:05:56.362Z,15.89
2022-09-23T13:06:56.101Z,15.92
2022-09-23T13:07:56.362Z,15.89
2022-09-23T13:08:56.430Z,15.83
2022-09-23T13:09:56.100Z,15.8
2022-09-23T13:10:55.811Z,15.74
2022-09-23T13:11:56.060Z,15.84
2022-09-23T13:12:56.052Z,15.74
2022-09-23T13:13:56.062Z,15.74
2022-09-23T13:14:56.144Z,15.73
2022-09-23T13:15:56.037Z,15.86
2022-09-23T13:16:56.737Z,15.93
2022-09-23T13:17:56.272Z,15.8
2022-09-23T13:18:56.263Z,15.75
2022-09-23T13:19:56.263Z,15.75
2022-09-23T13:20:55.769Z,15.75
2022-09-23T13:21:56.010Z,15.74
2022-09-23T13:22:56.235Z,15.77
2022-09-23T13:23:56.229Z,15.74
2022-09-23T13:24:56.293Z,15.78
2022-09-23T13:25:55.985Z,15.71
2022-09-23T13:26:55.957Z,15.73